Lake Fork, Ohio
Current Conditions -  °F | °C
As of 10:52 PM on Saturday 22 Nov 2014 (Local Time) from KMFD Reporting Station
Broken Clouds Broken Clouds  
Wind Chill: 41°   Ceiling: 9000
Heat Index: 47°   Visibility: 10mi
Dew Point: 37°   Wind: 14mph
Humidity: 68%   Direction: 190°S
Pressure: 30.04"   Gusts: NA
Location:  40.7919°N, 82.1797°W
Report Text: KMFD 230352Z 19012KT 10SM FEW048 SCT060 BKN090 08/03 A3004 RMK AO2 SLP177 T00830028
Loading
Personal Weather Stations






























Interactive Weather Map New forecast layout! Learn more

10-Day Weather Forecast

Advertisements
Track Severe Weather on mobile